http://t.indoflyer.net/403748
Pesawat American Airlines Kecelakaan Saat Mendarat (Full Version)

All Forums >> [AVIATION SECTION] >> Dunia Penerbangan



Message


fitri_asni -> Pesawat American Airlines Kecelakaan Saat Mendarat (23/12/2009 15:34:14)

Barusan baca di dtk
http://Pesawat American Airlines Kecelakaan Saat Mendarat
kenapa pesawat bisa terbelah jadi 2 bagian yaa?
thx


   http://t.indoflyer.net/403748


haristk7 -> RE: Pesawat American Airlines Kecelakaan Saat Mendarat (23/12/2009 15:45:28)

from American Airlines website:

quote:

AMERICAN AIRLINES STATEMENT REGARDING FLIGHT 331 Release #1 @ 11:58 (p.m.) U.S. Central Time

PRNewswire
FORT WORTH, Texas

FORT WORTH, Texas, Dec. 22 /PRNewswire/ -- On Tuesday, December 22, 2009, American Airlines Flight 331, a Boeing 737-800 aircraft, overran the runway on landing at Kingston, Jamaica's Norman Manley International Airport. The flight originated out of Ronald Reagan Washington National Airport, operated into Miami International Airport, and then operated into Kingston's Norman Manley International Airport.

Preliminary reports indicate there are no serious injuries. The aircraft was carrying 148 passengers and a crew of six.

American Airlines is in direct contact with officials from the National Transportation Safety Board and the Federal Aviation Administration and is cooperating fully with appropriate authorities. American Airlines will not speculate as to possible causes of the incident. At this point, no additional details can be confirmed.

SOURCE: American Airlines

Web site: http://www.aa.com/


and

quote:

AMERICAN AIRLINES STATEMENT REGARDING FLIGHT 331 Release #2 @ 1:25 (a.m.) U.S. Central Time

PRNewswire
FORT WORTH, Texas

FORT WORTH, Texas, Dec. 23 /PRNewswire/ -- On Tuesday, December 22, 2009, American Airlines Flight 331, a Boeing 737-800 aircraft, overran the runway on landing at Kingston, Jamaica's Norman Manley International Airport. The flight originated out of Ronald Reagan Washington National Airport, operated into Miami International Airport, and then operated into Kingston's Norman Manley International Airport.

Preliminary reports indicate there are no critical injuries. The aircraft was carrying 148 passengers and a crew of six.

"The care of our passengers and crew members is our highest priority and we will offer all the assistance necessary," said Gerard Arpey, American's Chairman and Chief Executive Officer.

American Airlines is in direct contact with officials from the National Transportation Safety Board and the Federal Aviation Administration and is cooperating fully with appropriate authorities. American Airlines cannot speculate as to possible causes of the incident. At this point, no additional details can be confirmed.

Anyone who believes they have family members or friends aboard Flight 331 may contact American Airlines at the following toll-free numbers: (800) 245-0999 for calls originating in the United States; (800) 872-2881 for calls originating in Jamaica. Family members from other locations outside the U.S. may contact American through the AT&T Direct Access system. Callers should dial the local AT&T Access telephone number, which can be found at www.usa.att.com/traveler, for the country from which they are calling. Once in the AT&T system, callers can then dial American toll-free at (800) 245-0999. Family members in Canada, Puerto Rico, or the U.S. Virgin islands can call the (800) 245-0999 number directly. Non-family members are asked not to call those numbers so the lines can be kept available for those who truly need them.

SOURCE: American Airlines

Web site: http://www.aa.com/


hope everyone is alright....althrough the aircraft seems don't [:(]

kondisi cuaca pas kejadian:
quote:

MKJP 230400Z 32014KT 11500 +SHRA BKN014 FEW016CB SCT028 BKN090 21/18 Q1013 RERA
MKJP 230300Z 32008KT 33000 +SHRA BKN014 FEW016CB SCT030 BKN100 21/20 Q1014 RETSRA
MKJP 230228Z 31009KT 5000 TSRA BKN014 FEW016CB SCT030 BKN100 22/19 Q1013
MKJP 230200Z 30012KT 5000 SHRA BKN014 SCT030 BKN100 22/20 Q1013 RERA


RIP for that beautiful AA B737-823 [:(][image]http://i330.photobucket.com/albums/l411/haristk7/Smiley%20Airliners/pray.gif[/image]

aircraft photo: Boeing 737-823 N977AN


Serial number: 29550 LN:1019
Type: B737-823
First flight date: 30/11/2001
Test registration: N1786B
Delivery Date to American Airlines: 20/12/2001

quote:

kenapa pesawat bisa terbelah jadi 2 bagian yaa?


bisa saja, karena ada gaya yang dimana fuselage pesawat tidak sanggup menahan gaya tersebut...btw pesawatnya patah 3

edit reason: nambahin METAR and some info


   http://t.indoflyer.net/403748


flyingplastic -> RE: Pesawat American Airlines Kecelakaan Saat Mendarat (23/12/2009 16:02:04)

quote:

ORIGINAL: haristk7
quote:

kenapa pesawat bisa terbelah jadi 2 bagian yaa?


bisa saja, karena ada gaya yang dimana fuselage pesawat tidak sanggup menahan gaya tersebut...btw pesawatnya patah 3

edit reason: nambahin METAR and some info

Mungkin seperti flight 1420 di tahun 1999, pesawat terbelah akibat terhantam ILS Localizer & Runway APP lighting yang ternyata dipasang dengan cara yang berbeda daripada yang laen...

For all the pax, hope they are allright, and for the plane, i also say RIP for it.


   http://t.indoflyer.net/403748


Sky_kid -> RE: Pesawat American Airlines Kecelakaan Saat Mendarat (23/12/2009 16:45:57)

Oh, man, I love the AA's 738, all of it.[:-][:-][:-] but RIP for this one.[:(] BTW, Kok bisa ya?


   http://t.indoflyer.net/403748


Page: [1]



Forum Software © ASPPlayground.NET Advanced Edition 2.4.2
0.03125